sensor_id;sensor_type;location;lat;lon;timestamp;P1;durP1;ratioP1;P2;durP2;ratioP2
46377;SDS011;32083;47.360;9.650;2023-08-21T00:01:42;10.73;;;9.00;;
46377;SDS011;32083;47.360;9.650;2023-08-21T00:04:11;9.70;;;8.90;;
46377;SDS011;32083;47.360;9.650;2023-08-21T00:06:40;10.45;;;9.27;;
46377;SDS011;32083;47.360;9.650;2023-08-21T00:09:06;10.73;;;9.60;;
46377;SDS011;32083;47.360;9.650;2023-08-21T00:11:34;9.93;;;8.40;;
46377;SDS011;32083;47.360;9.650;2023-08-21T00:14:01;9.73;;;8.82;;
46377;SDS011;32083;47.360;9.650;2023-08-21T00:16:32;10.50;;;8.88;;
46377;SDS011;32083;47.360;9.650;2023-08-21T00:19:19;11.48;;;9.27;;
46377;SDS011;32083;47.360;9.650;2023-08-21T00:21:51;9.55;;;8.65;;
46377;SDS011;32083;47.360;9.650;2023-08-21T00:24:22;9.00;;;8.20;;
46377;SDS011;32083;47.360;9.650;2023-08-21T00:26:48;9.93;;;8.70;;
46377;SDS011;32083;47.360;9.650;2023-08-21T00:29:16;12.57;;;9.02;;
46377;SDS011;32083;47.360;9.650;2023-08-21T00:31:52;10.05;;;9.07;;
46377;SDS011;32083;47.360;9.650;2023-08-21T00:34:19;9.50;;;8.27;;
46377;SDS011;32083;47.360;9.650;2023-08-21T00:36:51;9.98;;;9.00;;
46377;SDS011;32083;47.360;9.650;2023-08-21T00:39:20;9.88;;;8.80;;
46377;SDS011;32083;47.360;9.650;2023-08-21T00:41:47;10.05;;;9.05;;
46377;SDS011;32083;47.360;9.650;2023-08-21T00:44:13;10.85;;;9.07;;
46377;SDS011;32083;47.360;9.650;2023-08-21T00:46:40;10.65;;;9.15;;
46377;SDS011;32083;47.360;9.650;2023-08-21T00:49:06;10.23;;;9.25;;
46377;SDS011;32083;47.360;9.650;2023-08-21T00:51:34;9.60;;;8.75;;
46377;SDS011;32083;47.360;9.650;2023-08-21T00:54:02;10.82;;;9.68;;
46377;SDS011;32083;47.360;9.650;2023-08-21T00:56:28;10.52;;;9.43;;
46377;SDS011;32083;47.360;9.650;2023-08-21T00:58:56;9.73;;;8.93;;
46377;SDS011;32083;47.360;9.650;2023-08-21T01:01:23;9.95;;;9.05;;
46377;SDS011;32083;47.360;9.650;2023-08-21T01:03:52;11.30;;;9.32;;
46377;SDS011;32083;47.360;9.650;2023-08-21T01:06:23;10.15;;;9.15;;
46377;SDS011;32083;47.360;9.650;2023-08-21T01:09:13;9.95;;;8.95;;
46377;SDS011;32083;47.360;9.650;2023-08-21T01:15:06;10.68;;;9.77;;
46377;SDS011;32083;47.360;9.650;2023-08-21T01:17:35;12.82;;;9.48;;
46377;SDS011;32083;47.360;9.650;2023-08-21T01:20:06;11.85;;;9.07;;
46377;SDS011;32083;47.360;9.650;2023-08-21T01:22:38;9.70;;;8.73;;
46377;SDS011;32083;47.360;9.650;2023-08-21T01:25:05;10.15;;;8.65;;
46377;SDS011;32083;47.360;9.650;2023-08-21T01:27:34;10.43;;;9.43;;
46377;SDS011;32083;47.360;9.650;2023-08-21T01:30:03;10.20;;;9.18;;
46377;SDS011;32083;47.360;9.650;2023-08-21T01:35:39;9.95;;;8.93;;
46377;SDS011;32083;47.360;9.650;2023-08-21T01:38:05;9.68;;;8.77;;
46377;SDS011;32083;47.360;9.650;2023-08-21T01:40:32;9.57;;;8.70;;
46377;SDS011;32083;47.360;9.650;2023-08-21T01:42:58;10.85;;;9.68;;
46377;SDS011;32083;47.360;9.650;2023-08-21T01:45:24;9.43;;;8.52;;
46377;SDS011;32083;47.360;9.650;2023-08-21T01:47:51;9.40;;;8.40;;
46377;SDS011;32083;47.360;9.650;2023-08-21T01:50:18;9.68;;;8.70;;
46377;SDS011;32083;47.360;9.650;2023-08-21T01:52:50;9.73;;;8.75;;
46377;SDS011;32083;47.360;9.650;2023-08-21T01:55:16;10.07;;;9.05;;
46377;SDS011;32083;47.360;9.650;2023-08-21T01:58:07;10.88;;;8.85;;
46377;SDS011;32083;47.360;9.650;2023-08-21T02:00:36;11.43;;;9.77;;
46377;SDS011;32083;47.360;9.650;2023-08-21T02:03:11;10.35;;;8.65;;
46377;SDS011;32083;47.360;9.650;2023-08-21T02:05:39;10.45;;;8.57;;
46377;SDS011;32083;47.360;9.650;2023-08-21T02:08:11;11.23;;;10.13;;
46377;SDS011;32083;47.360;9.650;2023-08-21T02:10:48;9.93;;;9.02;;
46377;SDS011;32083;47.360;9.650;2023-08-21T02:13:24;10.30;;;9.30;;
46377;SDS011;32083;47.360;9.650;2023-08-21T02:15:56;10.20;;;9.07;;
46377;SDS011;32083;47.360;9.650;2023-08-21T02:18:24;10.10;;;9.20;;
46377;SDS011;32083;47.360;9.650;2023-08-21T02:20:53;10.13;;;9.13;;
46377;SDS011;32083;47.360;9.650;2023-08-21T02:23:21;10.85;;;9.75;;
46377;SDS011;32083;47.360;9.650;2023-08-21T02:25:49;10.50;;;9.38;;
46377;SDS011;32083;47.360;9.650;2023-08-21T02:28:21;9.15;;;8.27;;
46377;SDS011;32083;47.360;9.650;2023-08-21T02:30:49;10.38;;;9.27;;
46377;SDS011;32083;47.360;9.650;2023-08-21T02:33:25;11.25;;;8.70;;
46377;SDS011;32083;47.360;9.650;2023-08-21T02:35:51;12.07;;;9.27;;
46377;SDS011;32083;47.360;9.650;2023-08-21T02:38:17;10.57;;;9.52;;
46377;SDS011;32083;47.360;9.650;2023-08-21T02:40:50;10.60;;;8.88;;
46377;SDS011;32083;47.360;9.650;2023-08-21T02:43:22;9.73;;;8.90;;
46377;SDS011;32083;47.360;9.650;2023-08-21T02:45:51;10.13;;;8.82;;
46377;SDS011;32083;47.360;9.650;2023-08-21T02:48:21;10.43;;;9.43;;
46377;SDS011;32083;47.360;9.650;2023-08-21T02:50:53;11.20;;;10.10;;
46377;SDS011;32083;47.360;9.650;2023-08-21T02:53:38;12.23;;;9.20;;
46377;SDS011;32083;47.360;9.650;2023-08-21T02:56:07;11.30;;;9.00;;
46377;SDS011;32083;47.360;9.650;2023-08-21T02:58:35;10.27;;;9.20;;
46377;SDS011;32083;47.360;9.650;2023-08-21T03:01:02;10.13;;;9.02;;
46377;SDS011;32083;47.360;9.650;2023-08-21T03:03:32;13.10;;;10.30;;
46377;SDS011;32083;47.360;9.650;2023-08-21T03:06:01;12.23;;;11.02;;
46377;SDS011;32083;47.360;9.650;2023-08-21T03:08:27;14.05;;;10.75;;
46377;SDS011;32083;47.360;9.650;2023-08-21T03:10:54;13.23;;;11.02;;
46377;SDS011;32083;47.360;9.650;2023-08-21T03:13:27;12.00;;;9.77;;
46377;SDS011;32083;47.360;9.650;2023-08-21T03:16:06;11.95;;;10.85;;
46377;SDS011;32083;47.360;9.650;2023-08-21T03:18:53;11.20;;;9.95;;
46377;SDS011;32083;47.360;9.650;2023-08-21T03:21:22;12.05;;;10.77;;
46377;SDS011;32083;47.360;9.650;2023-08-21T03:26:32;11.25;;;10.05;;
46377;SDS011;32083;47.360;9.650;2023-08-21T03:28:59;12.95;;;10.23;;
46377;SDS011;32083;47.360;9.650;2023-08-21T03:31:26;11.52;;;10.00;;
46377;SDS011;32083;47.360;9.650;2023-08-21T03:33:58;11.80;;;9.70;;
46377;SDS011;32083;47.360;9.650;2023-08-21T03:36:24;11.45;;;10.25;;
46377;SDS011;32083;47.360;9.650;2023-08-21T03:38:59;13.00;;;10.13;;
46377;SDS011;32083;47.360;9.650;2023-08-21T03:41:26;13.02;;;10.23;;
46377;SDS011;32083;47.360;9.650;2023-08-21T03:44:10;10.95;;;9.20;;
46377;SDS011;32083;47.360;9.650;2023-08-21T03:46:36;12.30;;;10.75;;
46377;SDS011;32083;47.360;9.650;2023-08-21T03:49:05;11.68;;;10.50;;
46377;SDS011;32083;47.360;9.650;2023-08-21T03:51:33;11.63;;;10.07;;
46377;SDS011;32083;47.360;9.650;2023-08-21T03:53:58;11.38;;;9.75;;
46377;SDS011;32083;47.360;9.650;2023-08-21T03:56:27;12.88;;;10.30;;
46377;SDS011;32083;47.360;9.650;2023-08-21T03:58:53;10.63;;;9.63;;
46377;SDS011;32083;47.360;9.650;2023-08-21T04:01:27;14.85;;;11.13;;
46377;SDS011;32083;47.360;9.650;2023-08-21T04:03:55;12.50;;;11.02;;
46377;SDS011;32083;47.360;9.650;2023-08-21T04:06:45;13.35;;;12.05;;
46377;SDS011;32083;47.360;9.650;2023-08-21T04:09:15;13.60;;;12.18;;
46377;SDS011;32083;47.360;9.650;2023-08-21T04:11:44;13.38;;;11.93;;
46377;SDS011;32083;47.360;9.650;2023-08-21T04:14:20;16.00;;;11.65;;
46377;SDS011;32083;47.360;9.650;2023-08-21T04:16:52;11.95;;;9.85;;
46377;SDS011;32083;47.360;9.650;2023-08-21T04:19:25;13.38;;;11.73;;
46377;SDS011;32083;47.360;9.650;2023-08-21T04:21:57;12.10;;;10.90;;
46377;SDS011;32083;47.360;9.650;2023-08-21T04:24:28;12.80;;;11.50;;
46377;SDS011;32083;47.360;9.650;2023-08-21T04:27:00;11.73;;;10.65;;
46377;SDS011;32083;47.360;9.650;2023-08-21T04:29:30;11.48;;;10.40;;
46377;SDS011;32083;47.360;9.650;2023-08-21T04:32:06;13.88;;;9.90;;
46377;SDS011;32083;47.360;9.650;2023-08-21T04:34:35;12.18;;;10.95;;
46377;SDS011;32083;47.360;9.650;2023-08-21T04:37:02;13.60;;;11.77;;
46377;SDS011;32083;47.360;9.650;2023-08-21T04:39:30;11.57;;;10.38;;
46377;SDS011;32083;47.360;9.650;2023-08-21T04:42:10;15.75;;;11.70;;
46377;SDS011;32083;47.360;9.650;2023-08-21T04:44:42;15.02;;;11.38;;
46377;SDS011;32083;47.360;9.650;2023-08-21T04:47:23;11.98;;;10.77;;
46377;SDS011;32083;47.360;9.650;2023-08-21T04:50:06;12.73;;;11.45;;
46377;SDS011;32083;47.360;9.650;2023-08-21T04:52:35;14.45;;;11.55;;
46377;SDS011;32083;47.360;9.650;2023-08-21T04:55:05;11.98;;;10.15;;
46377;SDS011;32083;47.360;9.650;2023-08-21T04:57:38;13.23;;;11.85;;
46377;SDS011;32083;47.360;9.650;2023-08-21T05:00:08;12.68;;;11.38;;
46377;SDS011;32083;47.360;9.650;2023-08-21T05:02:37;11.20;;;10.10;;
46377;SDS011;32083;47.360;9.650;2023-08-21T05:05:28;12.98;;;11.73;;
46377;SDS011;32083;47.360;9.650;2023-08-21T05:07:55;13.20;;;11.45;;
46377;SDS011;32083;47.360;9.650;2023-08-21T05:10:25;13.25;;;11.63;;
46377;SDS011;32083;47.360;9.650;2023-08-21T05:12:52;14.02;;;12.63;;
46377;SDS011;32083;47.360;9.650;2023-08-21T05:15:18;14.13;;;11.80;;
46377;SDS011;32083;47.360;9.650;2023-08-21T05:17:44;16.13;;;12.35;;
46377;SDS011;32083;47.360;9.650;2023-08-21T05:20:17;12.98;;;11.10;;
46377;SDS011;32083;47.360;9.650;2023-08-21T05:22:56;12.45;;;11.23;;
46377;SDS011;32083;47.360;9.650;2023-08-21T05:25:24;13.48;;;11.35;;
46377;SDS011;32083;47.360;9.650;2023-08-21T05:28:01;13.35;;;11.55;;
46377;SDS011;32083;47.360;9.650;2023-08-21T05:30:29;11.98;;;10.70;;
46377;SDS011;32083;47.360;9.650;2023-08-21T05:33:02;17.10;;;11.02;;
46377;SDS011;32083;47.360;9.650;2023-08-21T05:35:34;11.23;;;10.07;;
46377;SDS011;32083;47.360;9.650;2023-08-21T05:38:05;12.43;;;11.23;;
46377;SDS011;32083;47.360;9.650;2023-08-21T05:40:33;11.38;;;10.18;;
46377;SDS011;32083;47.360;9.650;2023-08-21T05:43:00;11.25;;;10.13;;
46377;SDS011;32083;47.360;9.650;2023-08-21T05:45:31;12.02;;;10.65;;
46377;SDS011;32083;47.360;9.650;2023-08-21T05:48:02;12.07;;;9.65;;
46377;SDS011;32083;47.360;9.650;2023-08-21T05:50:40;12.82;;;9.93;;
46377;SDS011;32083;47.360;9.650;2023-08-21T05:53:08;12.10;;;10.45;;
46377;SDS011;32083;47.360;9.650;2023-08-21T05:58:26;14.25;;;9.60;;
46377;SDS011;32083;47.360;9.650;2023-08-21T06:00:56;12.10;;;10.10;;
46377;SDS011;32083;47.360;9.650;2023-08-21T06:03:22;10.05;;;9.15;;
46377;SDS011;32083;47.360;9.650;2023-08-21T06:05:53;13.50;;;10.55;;
46377;SDS011;32083;47.360;9.650;2023-08-21T06:08:24;12.93;;;9.95;;
46377;SDS011;32083;47.360;9.650;2023-08-21T06:10:52;10.65;;;9.55;;
46377;SDS011;32083;47.360;9.650;2023-08-21T06:13:25;11.07;;;10.00;;
46377;SDS011;32083;47.360;9.650;2023-08-21T06:15:57;10.25;;;9.25;;
46377;SDS011;32083;47.360;9.650;2023-08-21T06:18:32;12.15;;;9.75;;
46377;SDS011;32083;47.360;9.650;2023-08-21T06:21:02;11.27;;;10.20;;
46377;SDS011;32083;47.360;9.650;2023-08-21T06:23:40;10.85;;;9.68;;
46377;SDS011;32083;47.360;9.650;2023-08-21T06:26:19;10.50;;;9.40;;
46377;SDS011;32083;47.360;9.650;2023-08-21T06:28:53;10.80;;;9.75;;
46377;SDS011;32083;47.360;9.650;2023-08-21T06:31:25;15.60;;;10.13;;
46377;SDS011;32083;47.360;9.650;2023-08-21T06:33:52;9.75;;;8.73;;
46377;SDS011;32083;47.360;9.650;2023-08-21T06:36:23;11.07;;;9.32;;
46377;SDS011;32083;47.360;9.650;2023-08-21T06:39:02;10.80;;;9.05;;
46377;SDS011;32083;47.360;9.650;2023-08-21T06:41:28;9.95;;;8.13;;
46377;SDS011;32083;47.360;9.650;2023-08-21T06:43:55;9.43;;;8.20;;
46377;SDS011;32083;47.360;9.650;2023-08-21T06:46:31;11.60;;;8.75;;
46377;SDS011;32083;47.360;9.650;2023-08-21T06:49:04;9.20;;;8.30;;
46377;SDS011;32083;47.360;9.650;2023-08-21T06:51:39;9.13;;;7.63;;
46377;SDS011;32083;47.360;9.650;2023-08-21T06:54:12;9.05;;;7.95;;
46377;SDS011;32083;47.360;9.650;2023-08-21T06:56:53;10.00;;;8.63;;
46377;SDS011;32083;47.360;9.650;2023-08-21T06:59:29;9.52;;;8.50;;
46377;SDS011;32083;47.360;9.650;2023-08-21T07:01:58;13.07;;;8.82;;
46377;SDS011;32083;47.360;9.650;2023-08-21T07:04:30;12.20;;;8.23;;
46377;SDS011;32083;47.360;9.650;2023-08-21T07:06:58;12.20;;;8.98;;
46377;SDS011;32083;47.360;9.650;2023-08-21T07:09:35;13.23;;;8.45;;
46377;SDS011;32083;47.360;9.650;2023-08-21T07:12:02;11.25;;;9.30;;
46377;SDS011;32083;47.360;9.650;2023-08-21T07:14:32;10.32;;;8.93;;
46377;SDS011;32083;47.360;9.650;2023-08-21T07:17:01;10.50;;;9.35;;
46377;SDS011;32083;47.360;9.650;2023-08-21T07:19:29;15.68;;;9.98;;
46377;SDS011;32083;47.360;9.650;2023-08-21T07:21:55;10.88;;;9.55;;
46377;SDS011;32083;47.360;9.650;2023-08-21T07:24:21;11.52;;;9.27;;
46377;SDS011;32083;47.360;9.650;2023-08-21T07:26:49;10.30;;;8.98;;
46377;SDS011;32083;47.360;9.650;2023-08-21T07:29:18;10.73;;;8.85;;
46377;SDS011;32083;47.360;9.650;2023-08-21T07:31:52;13.25;;;8.88;;
46377;SDS011;32083;47.360;9.650;2023-08-21T07:34:23;12.55;;;8.90;;
46377;SDS011;32083;47.360;9.650;2023-08-21T07:36:53;11.10;;;9.40;;
46377;SDS011;32083;47.360;9.650;2023-08-21T07:39:27;8.85;;;7.95;;
46377;SDS011;32083;47.360;9.650;2023-08-21T07:41:53;10.55;;;9.02;;
46377;SDS011;32083;47.360;9.650;2023-08-21T07:44:21;11.55;;;8.48;;
46377;SDS011;32083;47.360;9.650;2023-08-21T07:46:47;9.05;;;8.15;;
46377;SDS011;32083;47.360;9.650;2023-08-21T07:49:16;10.27;;;9.07;;
46377;SDS011;32083;47.360;9.650;2023-08-21T07:51:54;13.45;;;8.25;;
46377;SDS011;32083;47.360;9.650;2023-08-21T07:54:21;15.00;;;9.45;;
46377;SDS011;32083;47.360;9.650;2023-08-21T07:56:50;13.35;;;9.55;;
46377;SDS011;32083;47.360;9.650;2023-08-21T07:59:16;13.98;;;8.95;;
46377;SDS011;32083;47.360;9.650;2023-08-21T08:01:45;12.88;;;8.48;;
46377;SDS011;32083;47.360;9.650;2023-08-21T08:04:11;10.77;;;8.38;;
46377;SDS011;32083;47.360;9.650;2023-08-21T08:06:37;12.35;;;8.82;;
46377;SDS011;32083;47.360;9.650;2023-08-21T08:09:03;10.55;;;8.07;;
46377;SDS011;32083;47.360;9.650;2023-08-21T08:11:31;13.45;;;8.80;;
46377;SDS011;32083;47.360;9.650;2023-08-21T08:13:57;9.35;;;8.35;;
46377;SDS011;32083;47.360;9.650;2023-08-21T08:16:26;9.57;;;8.50;;
46377;SDS011;32083;47.360;9.650;2023-08-21T08:18:55;11.38;;;8.80;;
46377;SDS011;32083;47.360;9.650;2023-08-21T08:21:21;11.32;;;8.75;;
46377;SDS011;32083;47.360;9.650;2023-08-21T08:23:47;8.60;;;7.80;;
46377;SDS011;32083;47.360;9.650;2023-08-21T08:26:20;9.95;;;8.77;;
46377;SDS011;32083;47.360;9.650;2023-08-21T08:28:53;11.02;;;8.70;;
46377;SDS011;32083;47.360;9.650;2023-08-21T08:31:20;10.55;;;8.55;;
46377;SDS011;32083;47.360;9.650;2023-08-21T08:33:48;13.60;;;9.45;;
46377;SDS011;32083;47.360;9.650;2023-08-21T08:36:17;9.95;;;8.57;;
46377;SDS011;32083;47.360;9.650;2023-08-21T08:38:42;10.43;;;8.60;;
46377;SDS011;32083;47.360;9.650;2023-08-21T08:41:10;8.55;;;7.72;;
46377;SDS011;32083;47.360;9.650;2023-08-21T08:43:51;9.23;;;7.88;;
46377;SDS011;32083;47.360;9.650;2023-08-21T08:46:22;12.38;;;8.88;;
46377;SDS011;32083;47.360;9.650;2023-08-21T08:48:50;10.05;;;8.98;;
46377;SDS011;32083;47.360;9.650;2023-08-21T08:51:17;9.57;;;8.68;;
46377;SDS011;32083;47.360;9.650;2023-08-21T08:53:44;13.82;;;10.10;;
46377;SDS011;32083;47.360;9.650;2023-08-21T08:56:11;9.98;;;8.23;;
46377;SDS011;32083;47.360;9.650;2023-08-21T08:58:37;13.55;;;8.88;;
46377;SDS011;32083;47.360;9.650;2023-08-21T09:01:03;12.68;;;9.27;;
46377;SDS011;32083;47.360;9.650;2023-08-21T09:06:01;9.00;;;8.00;;
46377;SDS011;32083;47.360;9.650;2023-08-21T09:08:31;10.63;;;8.68;;
46377;SDS011;32083;47.360;9.650;2023-08-21T09:11:04;9.93;;;8.95;;
46377;SDS011;32083;47.360;9.650;2023-08-21T09:13:30;9.93;;;8.38;;
46377;SDS011;32083;47.360;9.650;2023-08-21T09:16:05;10.20;;;8.55;;
46377;SDS011;32083;47.360;9.650;2023-08-21T09:18:35;10.75;;;8.55;;
46377;SDS011;32083;47.360;9.650;2023-08-21T09:21:05;13.20;;;8.95;;
46377;SDS011;32083;47.360;9.650;2023-08-21T09:23:32;12.50;;;9.30;;
46377;SDS011;32083;47.360;9.650;2023-08-21T09:25:58;11.68;;;8.60;;
46377;SDS011;32083;47.360;9.650;2023-08-21T09:28:23;14.38;;;8.85;;
46377;SDS011;32083;47.360;9.650;2023-08-21T09:30:54;10.18;;;8.95;;
46377;SDS011;32083;47.360;9.650;2023-08-21T09:33:24;10.68;;;8.57;;
46377;SDS011;32083;47.360;9.650;2023-08-21T09:35:53;10.77;;;8.98;;
46377;SDS011;32083;47.360;9.650;2023-08-21T09:38:20;8.75;;;7.95;;
46377;SDS011;32083;47.360;9.650;2023-08-21T09:40:51;9.48;;;8.43;;
46377;SDS011;32083;47.360;9.650;2023-08-21T09:43:23;12.45;;;7.97;;
46377;SDS011;32083;47.360;9.650;2023-08-21T09:45:52;12.10;;;8.55;;
46377;SDS011;32083;47.360;9.650;2023-08-21T09:48:26;9.73;;;8.77;;
46377;SDS011;32083;47.360;9.650;2023-08-21T09:50:53;10.70;;;8.88;;
46377;SDS011;32083;47.360;9.650;2023-08-21T09:53:22;10.18;;;8.00;;
46377;SDS011;32083;47.360;9.650;2023-08-21T09:55:49;9.20;;;7.95;;
46377;SDS011;32083;47.360;9.650;2023-08-21T09:58:19;8.77;;;7.10;;
46377;SDS011;32083;47.360;9.650;2023-08-21T10:00:48;8.57;;;7.78;;
46377;SDS011;32083;47.360;9.650;2023-08-21T10:03:19;8.50;;;7.50;;
46377;SDS011;32083;47.360;9.650;2023-08-21T10:05:47;13.63;;;8.30;;
46377;SDS011;32083;47.360;9.650;2023-08-21T10:08:16;8.60;;;7.75;;
46377;SDS011;32083;47.360;9.650;2023-08-21T10:10:49;9.85;;;8.43;;
46377;SDS011;32083;47.360;9.650;2023-08-21T10:13:25;8.93;;;7.97;;
46377;SDS011;32083;47.360;9.650;2023-08-21T10:15:52;8.88;;;7.80;;
46377;SDS011;32083;47.360;9.650;2023-08-21T10:18:22;9.68;;;8.50;;
46377;SDS011;32083;47.360;9.650;2023-08-21T10:20:54;8.68;;;7.78;;
46377;SDS011;32083;47.360;9.650;2023-08-21T10:23:28;9.20;;;7.40;;
46377;SDS011;32083;47.360;9.650;2023-08-21T10:25:57;8.95;;;7.90;;
46377;SDS011;32083;47.360;9.650;2023-08-21T10:28:40;11.68;;;7.40;;
46377;SDS011;32083;47.360;9.650;2023-08-21T10:34:01;8.25;;;6.70;;
46377;SDS011;32083;47.360;9.650;2023-08-21T10:39:26;9.88;;;7.45;;
46377;SDS011;32083;47.360;9.650;2023-08-21T10:42:03;9.98;;;7.63;;
46377;SDS011;32083;47.360;9.650;2023-08-21T10:44:36;10.38;;;9.25;;
46377;SDS011;32083;47.360;9.650;2023-08-21T10:49:55;10.95;;;9.95;;
46377;SDS011;32083;47.360;9.650;2023-08-21T10:52:34;11.15;;;9.38;;
46377;SDS011;32083;47.360;9.650;2023-08-21T10:55:10;11.35;;;10.32;;
46377;SDS011;32083;47.360;9.650;2023-08-21T10:57:37;12.32;;;9.82;;
46377;SDS011;32083;47.360;9.650;2023-08-21T11:00:12;12.57;;;10.68;;
46377;SDS011;32083;47.360;9.650;2023-08-21T11:02:46;10.30;;;9.27;;
46377;SDS011;32083;47.360;9.650;2023-08-21T11:05:15;12.80;;;10.52;;
46377;SDS011;32083;47.360;9.650;2023-08-21T11:07:43;10.43;;;9.35;;
46377;SDS011;32083;47.360;9.650;2023-08-21T11:10:13;12.90;;;9.27;;
46377;SDS011;32083;47.360;9.650;2023-08-21T11:12:50;10.27;;;9.48;;
46377;SDS011;32083;47.360;9.650;2023-08-21T11:15:21;9.27;;;8.32;;
46377;SDS011;32083;47.360;9.650;2023-08-21T11:17:55;9.20;;;8.32;;
46377;SDS011;32083;47.360;9.650;2023-08-21T11:20:35;9.23;;;8.10;;
46377;SDS011;32083;47.360;9.650;2023-08-21T11:23:04;11.68;;;9.60;;
46377;SDS011;32083;47.360;9.650;2023-08-21T11:25:32;8.88;;;8.18;;
46377;SDS011;32083;47.360;9.650;2023-08-21T11:28:00;9.40;;;8.02;;
46377;SDS011;32083;47.360;9.650;2023-08-21T11:30:32;11.57;;;8.60;;
46377;SDS011;32083;47.360;9.650;2023-08-21T11:33:06;12.18;;;8.20;;
46377;SDS011;32083;47.360;9.650;2023-08-21T11:35:35;8.73;;;7.93;;
46377;SDS011;32083;47.360;9.650;2023-08-21T11:38:05;9.57;;;8.57;;
46377;SDS011;32083;47.360;9.650;2023-08-21T11:40:35;9.68;;;7.88;;
46377;SDS011;32083;47.360;9.650;2023-08-21T11:43:02;13.43;;;8.10;;
46377;SDS011;32083;47.360;9.650;2023-08-21T11:45:30;8.73;;;7.30;;
46377;SDS011;32083;47.360;9.650;2023-08-21T11:47:56;11.77;;;7.95;;
46377;SDS011;32083;47.360;9.650;2023-08-21T11:50:43;8.30;;;7.15;;
46377;SDS011;32083;47.360;9.650;2023-08-21T11:53:12;9.40;;;8.50;;
46377;SDS011;32083;47.360;9.650;2023-08-21T11:55:43;9.68;;;8.13;;
46377;SDS011;32083;47.360;9.650;2023-08-21T11:58:12;8.80;;;8.02;;
46377;SDS011;32083;47.360;9.650;2023-08-21T12:00:43;9.73;;;8.60;;
46377;SDS011;32083;47.360;9.650;2023-08-21T12:03:09;11.30;;;8.07;;
46377;SDS011;32083;47.360;9.650;2023-08-21T12:05:36;9.70;;;8.15;;
46377;SDS011;32083;47.360;9.650;2023-08-21T12:08:10;8.52;;;7.68;;
46377;SDS011;32083;47.360;9.650;2023-08-21T12:10:38;10.10;;;7.85;;
46377;SDS011;32083;47.360;9.650;2023-08-21T12:13:05;16.90;;;9.13;;
46377;SDS011;32083;47.360;9.650;2023-08-21T12:15:34;8.07;;;7.28;;
46377;SDS011;32083;47.360;9.650;2023-08-21T12:18:01;8.95;;;8.20;;
46377;SDS011;32083;47.360;9.650;2023-08-21T12:20:34;9.65;;;7.78;;
46377;SDS011;32083;47.360;9.650;2023-08-21T12:23:06;8.97;;;7.50;;
46377;SDS011;32083;47.360;9.650;2023-08-21T12:25:32;8.35;;;7.55;;
46377;SDS011;32083;47.360;9.650;2023-08-21T12:28:00;9.65;;;7.85;;
46377;SDS011;32083;47.360;9.650;2023-08-21T12:30:26;9.95;;;7.88;;
46377;SDS011;32083;47.360;9.650;2023-08-21T12:32:57;10.13;;;7.95;;
46377;SDS011;32083;47.360;9.650;2023-08-21T12:35:25;8.93;;;7.72;;
46377;SDS011;32083;47.360;9.650;2023-08-21T12:37:50;10.70;;;8.32;;
46377;SDS011;32083;47.360;9.650;2023-08-21T12:40:23;11.43;;;8.55;;
46377;SDS011;32083;47.360;9.650;2023-08-21T12:42:49;8.82;;;7.18;;
46377;SDS011;32083;47.360;9.650;2023-08-21T12:45:22;8.15;;;7.28;;
46377;SDS011;32083;47.360;9.650;2023-08-21T12:47:55;8.00;;;6.85;;
46377;SDS011;32083;47.360;9.650;2023-08-21T12:50:26;9.70;;;6.70;;
46377;SDS011;32083;47.360;9.650;2023-08-21T12:52:51;8.30;;;7.20;;
46377;SDS011;32083;47.360;9.650;2023-08-21T12:55:18;8.88;;;6.82;;
46377;SDS011;32083;47.360;9.650;2023-08-21T12:57:47;7.90;;;6.97;;
46377;SDS011;32083;47.360;9.650;2023-08-21T13:00:13;7.82;;;7.03;;
46377;SDS011;32083;47.360;9.650;2023-08-21T13:02:43;8.48;;;6.97;;
46377;SDS011;32083;47.360;9.650;2023-08-21T13:05:11;6.63;;;6.05;;
46377;SDS011;32083;47.360;9.650;2023-08-21T13:07:37;7.20;;;6.50;;
46377;SDS011;32083;47.360;9.650;2023-08-21T13:10:06;8.32;;;6.50;;
46377;SDS011;32083;47.360;9.650;2023-08-21T13:12:34;7.32;;;6.72;;
46377;SDS011;32083;47.360;9.650;2023-08-21T13:15:00;8.48;;;6.88;;
46377;SDS011;32083;47.360;9.650;2023-08-21T13:17:27;8.43;;;6.93;;
46377;SDS011;32083;47.360;9.650;2023-08-21T13:19:53;9.82;;;6.18;;
46377;SDS011;32083;47.360;9.650;2023-08-21T13:22:19;6.57;;;6.00;;
46377;SDS011;32083;47.360;9.650;2023-08-21T13:24:45;6.40;;;5.75;;
46377;SDS011;32083;47.360;9.650;2023-08-21T13:27:12;8.73;;;7.35;;
46377;SDS011;32083;47.360;9.650;2023-08-21T13:29:39;8.02;;;6.82;;
46377;SDS011;32083;47.360;9.650;2023-08-21T13:32:05;7.70;;;6.55;;
46377;SDS011;32083;47.360;9.650;2023-08-21T13:34:34;7.05;;;5.82;;
46377;SDS011;32083;47.360;9.650;2023-08-21T13:38:19;7.53;;;5.57;;
46377;SDS011;32083;47.360;9.650;2023-08-21T13:41:29;8.02;;;6.43;;
46377;SDS011;32083;47.360;9.650;2023-08-21T13:44:33;7.05;;;6.35;;
46377;SDS011;32083;47.360;9.650;2023-08-21T13:47:25;8.13;;;7.05;;
46377;SDS011;32083;47.360;9.650;2023-08-21T13:50:18;9.00;;;6.35;;
46377;SDS011;32083;47.360;9.650;2023-08-21T13:52:45;14.15;;;7.10;;
46377;SDS011;32083;47.360;9.650;2023-08-21T13:55:12;8.25;;;6.63;;
46377;SDS011;32083;47.360;9.650;2023-08-21T13:57:39;7.93;;;6.10;;
46377;SDS011;32083;47.360;9.650;2023-08-21T14:00:06;6.72;;;5.40;;
46377;SDS011;32083;47.360;9.650;2023-08-21T14:02:36;12.95;;;6.40;;
46377;SDS011;32083;47.360;9.650;2023-08-21T14:05:03;9.27;;;6.15;;
46377;SDS011;32083;47.360;9.650;2023-08-21T14:07:30;7.65;;;5.65;;
46377;SDS011;32083;47.360;9.650;2023-08-21T14:09:56;9.30;;;5.03;;
46377;SDS011;32083;47.360;9.650;2023-08-21T14:12:23;8.10;;;5.55;;
46377;SDS011;32083;47.360;9.650;2023-08-21T14:14:48;7.22;;;5.60;;
46377;SDS011;32083;47.360;9.650;2023-08-21T14:17:15;7.63;;;5.57;;
46377;SDS011;32083;47.360;9.650;2023-08-21T14:19:41;5.93;;;5.20;;
46377;SDS011;32083;47.360;9.650;2023-08-21T14:22:07;9.38;;;5.75;;
46377;SDS011;32083;47.360;9.650;2023-08-21T14:24:33;7.53;;;5.65;;
46377;SDS011;32083;47.360;9.650;2023-08-21T14:26:59;7.43;;;5.45;;
46377;SDS011;32083;47.360;9.650;2023-08-21T14:29:25;6.57;;;5.93;;
46377;SDS011;32083;47.360;9.650;2023-08-21T14:31:51;5.97;;;5.00;;
46377;SDS011;32083;47.360;9.650;2023-08-21T14:34:20;6.00;;;5.40;;
46377;SDS011;32083;47.360;9.650;2023-08-21T14:36:50;6.03;;;5.32;;
46377;SDS011;32083;47.360;9.650;2023-08-21T14:39:15;6.75;;;5.20;;
46377;SDS011;32083;47.360;9.650;2023-08-21T14:41:41;6.55;;;5.90;;
46377;SDS011;32083;47.360;9.650;2023-08-21T14:44:08;6.47;;;5.78;;
46377;SDS011;32083;47.360;9.650;2023-08-21T14:46:34;9.50;;;5.88;;
46377;SDS011;32083;47.360;9.650;2023-08-21T14:49:00;11.70;;;5.32;;
46377;SDS011;32083;47.360;9.650;2023-08-21T14:51:27;7.00;;;6.15;;
46377;SDS011;32083;47.360;9.650;2023-08-21T14:53:53;8.00;;;5.80;;
46377;SDS011;32083;47.360;9.650;2023-08-21T14:56:22;6.10;;;5.20;;
46377;SDS011;32083;47.360;9.650;2023-08-21T14:58:48;7.00;;;5.60;;
46377;SDS011;32083;47.360;9.650;2023-08-21T15:01:14;7.53;;;5.10;;
46377;SDS011;32083;47.360;9.650;2023-08-21T15:03:41;6.65;;;5.07;;
46377;SDS011;32083;47.360;9.650;2023-08-21T15:06:07;5.55;;;5.05;;
46377;SDS011;32083;47.360;9.650;2023-08-21T15:08:33;5.80;;;5.20;;
46377;SDS011;32083;47.360;9.650;2023-08-21T15:10:59;7.53;;;5.97;;
46377;SDS011;32083;47.360;9.650;2023-08-21T15:13:26;6.68;;;5.75;;
46377;SDS011;32083;47.360;9.650;2023-08-21T15:15:52;8.48;;;5.13;;
46377;SDS011;32083;47.360;9.650;2023-08-21T15:18:17;8.95;;;6.15;;
46377;SDS011;32083;47.360;9.650;2023-08-21T15:20:43;10.40;;;5.25;;